Time;durP1;ratioP1;P1;durP2;ratioP2;P2;SDS_P1;SDS_P2;PMS_P1;PMS_P2;Temp;Humidity;BMP_temperature;BMP_pressure;BME280_temperature;BME280_humidity;BME280_pressure;Samples;Min_cycle;Max_cycle;Signal;HPM_P1;HPM_P2
2021/03/02 00:01:07;;;;;;;43.70;23.10;;;20.30;99.90;;;;;;5011038;28;20038;-32
2021/03/02 00:03:36;;;;;;;45.72;21.63;;;20.20;99.90;;;;;;5009629;28;20365;-32
2021/03/02 00:06:03;;;;;;;49.33;21.45;;;20.30;99.90;;;;;;4994487;28;20391;-32
2021/03/02 00:08:29;;;;;;;42.50;20.40;;;20.20;99.90;;;;;;4994019;28;20094;-32
2021/03/02 00:10:58;;;;;;;43.05;22.70;;;20.20;99.90;;;;;;4995040;28;20023;-32
2021/03/02 00:13:24;;;;;;;52.63;23.40;;;20.20;99.90;;;;;;5004499;28;20392;-32
2021/03/02 00:15:51;;;;;;;39.00;18.98;;;20.20;99.90;;;;;;5004686;28;20030;-33
2021/03/02 00:18:21;;;;;;;41.15;19.08;;;20.20;99.90;;;;;;5000897;28;20032;-32
2021/03/02 00:20:52;;;;;;;40.90;19.23;;;20.10;99.90;;;;;;5002754;28;20029;-32
2021/03/02 00:23:25;;;;;;;45.22;18.65;;;20.10;99.90;;;;;;5013574;28;20018;-32
2021/03/02 00:25:54;;;;;;;46.10;19.50;;;20.10;99.90;;;;;;4997833;28;20030;-32
2021/03/02 00:28:22;;;;;;;39.42;17.60;;;20.10;99.90;;;;;;4998035;28;20026;-32
2021/03/02 00:30:50;;;;;;;41.55;17.58;;;20.10;99.90;;;;;;4998488;28;20030;-32
2021/03/02 00:33:17;;;;;;;43.20;18.02;;;20.10;99.90;;;;;;5003407;28;20037;-32
2021/03/02 00:35:43;;;;;;;45.97;18.50;;;20.10;99.90;;;;;;5001158;28;20030;-32
2021/03/02 00:38:09;;;;;;;38.08;18.98;;;20.10;99.90;;;;;;5001007;28;20040;-32
2021/03/02 00:40:35;;;;;;;40.33;18.42;;;20.10;99.90;;;;;;5013622;28;20445;-32
2021/03/02 00:43:00;;;;;;;33.88;17.83;;;20.10;99.90;;;;;;5007810;28;20026;-32
2021/03/02 00:45:26;;;;;;;38.67;17.38;;;20.10;99.90;;;;;;4995753;28;20108;-33
2021/03/02 00:47:53;;;;;;;32.20;17.42;;;20.10;99.90;;;;;;5002322;28;20029;-32
2021/03/02 00:50:22;;;;;;;36.53;17.88;;;20.10;99.90;;;;;;5017002;28;20026;-32
2021/03/02 00:52:47;;;;;;;32.85;18.23;;;20.10;99.90;;;;;;5017292;28;20053;-32
2021/03/02 00:55:14;;;;;;;38.85;18.33;;;20.00;99.90;;;;;;5017190;28;20061;-32
2021/03/02 00:57:40;;;;;;;40.17;17.30;;;20.10;99.90;;;;;;5017326;28;20030;-32
2021/03/02 01:00:07;;;;;;;35.42;17.73;;;20.00;99.90;;;;;;5014894;28;20036;-32
2021/03/02 01:02:33;;;;;;;34.58;18.65;;;20.00;99.90;;;;;;5009113;28;20050;-32
2021/03/02 01:04:59;;;;;;;37.65;17.30;;;20.10;99.90;;;;;;5007545;28;20080;-33
2021/03/02 01:07:25;;;;;;;36.38;18.05;;;20.00;99.90;;;;;;5013339;28;20026;-32
2021/03/02 01:09:51;;;;;;;33.10;17.55;;;20.00;99.90;;;;;;5006678;28;20025;-33
2021/03/02 01:12:16;;;;;;;31.23;16.83;;;20.00;99.90;;;;;;5017114;28;20021;-33
2021/03/02 01:14:42;;;;;;;32.53;16.88;;;20.00;99.90;;;;;;5002284;28;20514;-33
2021/03/02 01:17:08;;;;;;;34.15;16.63;;;20.00;99.90;;;;;;5009082;28;20022;-33
2021/03/02 01:19:34;;;;;;;32.47;17.65;;;20.00;99.90;;;;;;5010224;28;20033;-33
2021/03/02 01:22:00;;;;;;;34.03;16.25;;;19.90;99.90;;;;;;5011532;28;20030;-33
2021/03/02 01:24:26;;;;;;;38.95;17.58;;;19.90;99.90;;;;;;5010273;28;20022;-33
2021/03/02 01:26:51;;;;;;;33.20;16.05;;;20.00;99.90;;;;;;5002596;28;20092;-32
2021/03/02 01:29:18;;;;;;;27.30;16.50;;;20.00;99.90;;;;;;5006160;28;20499;-32
2021/03/02 01:31:44;;;;;;;29.40;15.68;;;20.00;99.90;;;;;;5005122;28;20066;-32
2021/03/02 01:34:09;;;;;;;33.83;16.80;;;20.00;99.90;;;;;;5008111;28;20472;-32
2021/03/02 01:36:35;;;;;;;39.67;17.20;;;20.00;99.90;;;;;;5009221;28;20022;-32
2021/03/02 01:39:01;;;;;;;32.00;16.80;;;20.00;99.90;;;;;;5008510;28;20032;-32
2021/03/02 01:41:27;;;;;;;31.67;16.58;;;19.90;99.90;;;;;;5002151;28;20156;-32
2021/03/02 01:43:53;;;;;;;26.05;16.80;;;19.90;99.90;;;;;;5005666;28;20523;-33
2021/03/02 01:46:19;;;;;;;29.08;15.88;;;19.90;99.90;;;;;;5001528;28;20113;-33
2021/03/02 01:48:45;;;;;;;28.88;15.57;;;19.90;99.90;;;;;;5004816;28;20022;-33
2021/03/02 01:51:11;;;;;;;28.98;17.88;;;19.90;99.90;;;;;;5003234;28;20379;-33
2021/03/02 01:53:37;;;;;;;31.48;17.25;;;19.90;99.90;;;;;;5015768;28;20088;-32
2021/03/02 01:56:04;;;;;;;33.30;15.93;;;19.80;99.90;;;;;;5006949;28;20026;-33
2021/03/02 01:58:30;;;;;;;37.80;16.65;;;19.80;99.90;;;;;;5015099;28;20473;-33
2021/03/02 02:00:59;;;;;;;32.53;16.85;;;19.90;99.90;;;;;;4997122;28;20061;-32
2021/03/02 02:04:03;;;;;;;27.90;15.50;;;19.80;99.90;;;;;;5005751;28;20038;-32
2021/03/02 02:06:38;;;;;;;37.42;15.68;;;19.80;99.90;;;;;;5003131;28;20038;-32
2021/03/02 02:09:16;;;;;;;29.70;16.48;;;19.80;99.90;;;;;;5001914;28;20423;-32
2021/03/02 02:11:53;;;;;;;;;;;19.80;99.90;;;;;;5004344;28;20457;-32
2021/03/02 02:14:41;;;;;;;28.20;15.13;;;19.80;99.90;;;;;;5006860;28;19913;-32
2021/03/02 02:17:15;;;;;;;25.67;14.73;;;19.80;99.90;;;;;;5006246;28;20022;-32
2021/03/02 02:19:45;;;;;;;28.27;15.88;;;19.80;99.90;;;;;;5011343;28;20050;-32
2021/03/02 02:22:43;;;;;;;36.08;15.23;;;19.80;99.90;;;;;;5000852;28;20442;-32
2021/03/02 02:25:20;;;;;;;;;;;19.80;99.90;;;;;;5007928;28;20358;-32
2021/03/02 02:27:47;;;;;;;;;;;19.80;99.90;;;;;;4998097;28;19906;-32
2021/03/02 02:30:13;;;;;;;31.92;14.77;;;19.80;99.90;;;;;;4995990;28;19928;-33
2021/03/02 02:32:42;;;;;;;30.88;14.98;;;19.80;99.90;;;;;;4996750;28;20491;-32
2021/03/02 02:35:10;;;;;;;32.95;15.65;;;19.80;99.90;;;;;;5015385;28;20100;-32
2021/03/02 02:37:37;;;;;;;26.67;13.82;;;19.80;99.90;;;;;;5014292;28;20025;-32
2021/03/02 02:40:05;;;;;;;27.40;14.27;;;19.80;99.90;;;;;;4999527;28;20031;-32
2021/03/02 02:42:32;;;;;;;28.58;14.80;;;19.80;99.90;;;;;;5002255;28;20033;-32
2021/03/02 02:44:58;;;;;;;23.65;13.30;;;19.80;99.90;;;;;;5007676;28;20053;-32
2021/03/02 02:47:26;;;;;;;24.35;13.23;;;19.80;99.90;;;;;;5012148;28;20349;-32
2021/03/02 02:49:53;;;;;;;27.15;15.32;;;19.80;99.90;;;;;;4996191;28;20034;-32
2021/03/02 02:52:19;;;;;;;26.17;14.73;;;19.80;99.90;;;;;;5005000;28;20096;-32
2021/03/02 02:54:47;;;;;;;23.13;13.32;;;19.70;99.90;;;;;;5003579;28;20021;-33
2021/03/02 02:57:14;;;;;;;;;;;19.70;99.90;;;;;;5008087;28;20454;-32
2021/03/02 02:59:41;;;;;;;23.75;13.48;;;19.70;99.90;;;;;;5006931;28;19917;-32
2021/03/02 03:02:16;;;;;;;27.38;14.55;;;19.70;99.90;;;;;;5005158;28;20045;-33
2021/03/02 03:05:06;;;;;;;22.95;12.65;;;19.70;99.90;;;;;;5000459;28;20022;-33
2021/03/02 03:07:43;;;;;;;26.92;14.48;;;19.70;99.90;;;;;;5002031;28;20018;-32
2021/03/02 03:10:11;;;;;;;23.85;14.98;;;19.70;99.90;;;;;;5002608;28;20026;-33
2021/03/02 03:12:39;;;;;;;;;;;19.70;99.90;;;;;;5001465;28;20049;-32
2021/03/02 03:15:08;;;;;;;27.25;13.13;;;19.70;99.90;;;;;;5010425;28;19933;-33
2021/03/02 03:17:38;;;;;;;28.02;14.43;;;19.70;99.90;;;;;;5009233;28;20072;-32
2021/03/02 03:20:07;;;;;;;24.08;13.35;;;19.60;99.90;;;;;;4999927;28;20023;-32
2021/03/02 03:22:34;;;;;;;25.60;12.85;;;19.60;99.90;;;;;;4995912;28;20113;-32
2021/03/02 03:25:02;;;;;;;25.02;13.13;;;19.60;99.90;;;;;;5013248;28;20528;-33
2021/03/02 03:27:31;;;;;;;31.80;13.13;;;19.60;99.90;;;;;;5014516;28;20026;-33
2021/03/02 03:29:59;;;;;;;28.25;13.75;;;19.60;99.90;;;;;;5014350;28;20029;-32
2021/03/02 03:32:26;;;;;;;24.25;13.00;;;19.60;99.90;;;;;;5014465;28;20026;-33
2021/03/02 03:34:54;;;;;;;23.85;13.60;;;19.60;99.90;;;;;;5008629;28;20537;-32
2021/03/02 03:37:20;;;;;;;26.85;14.43;;;19.60;99.90;;;;;;4998166;28;20034;-33
2021/03/02 03:39:46;;;;;;;22.98;13.18;;;19.60;99.90;;;;;;4997505;28;20032;-33
2021/03/02 03:42:12;;;;;;;23.90;12.73;;;19.60;99.90;;;;;;5003351;28;20037;-32
2021/03/02 03:44:38;;;;;;;27.73;13.02;;;19.50;99.90;;;;;;5014110;28;20372;-33
2021/03/02 03:47:04;;;;;;;28.70;14.10;;;19.50;99.90;;;;;;5014160;28;20037;-32
2021/03/02 03:49:30;;;;;;;22.02;11.82;;;19.50;99.90;;;;;;5005451;28;20023;-32
2021/03/02 03:51:58;;;;;;;29.27;13.98;;;19.50;99.90;;;;;;5006410;28;20072;-32
2021/03/02 03:54:26;;;;;;;31.10;13.27;;;19.50;99.90;;;;;;5012931;28;20473;-32
2021/03/02 03:56:53;;;;;;;;;;;19.50;99.90;;;;;;5013720;28;20042;-32
2021/03/02 03:59:24;;;;;;;27.10;13.02;;;19.50;99.90;;;;;;5003026;28;19920;-32
2021/03/02 04:01:51;;;;;;;23.98;12.85;;;19.50;99.90;;;;;;4993909;28;20034;-32
2021/03/02 04:04:19;;;;;;;25.55;14.05;;;19.50;99.90;;;;;;4993120;28;20030;-32
2021/03/02 04:06:45;;;;;;;28.33;13.07;;;19.50;99.90;;;;;;4997541;28;20084;-32
2021/03/02 04:09:11;;;;;;;23.05;12.52;;;19.50;99.90;;;;;;4997656;28;20480;-32
2021/03/02 04:11:37;;;;;;;26.00;11.77;;;19.50;99.90;;;;;;5000781;28;20018;-32
2021/03/02 04:14:04;;;;;;;32.33;15.00;;;19.50;99.90;;;;;;4994807;28;20030;-32
2021/03/02 04:16:31;;;;;;;25.73;12.50;;;19.50;99.90;;;;;;5001269;28;20068;-32
2021/03/02 04:18:57;;;;;;;23.75;12.63;;;19.40;99.90;;;;;;5013564;28;20511;-32
2021/03/02 04:21:23;;;;;;;24.98;12.05;;;19.40;99.90;;;;;;5013312;28;20366;-32
2021/03/02 04:23:49;;;;;;;31.05;14.18;;;19.40;99.90;;;;;;5012286;28;20033;-33
2021/03/02 04:26:15;;;;;;;35.15;13.95;;;19.40;99.90;;;;;;5013474;28;20080;-32
2021/03/02 04:28:41;;;;;;;25.88;12.38;;;19.40;99.90;;;;;;5013586;28;20079;-32
2021/03/02 04:31:07;;;;;;;31.20;12.25;;;19.40;99.90;;;;;;5013384;28;20021;-32
2021/03/02 04:33:33;;;;;;;23.98;12.57;;;19.40;99.90;;;;;;5009193;28;20033;-32
2021/03/02 04:35:58;;;;;;;26.55;12.68;;;19.40;99.90;;;;;;4993968;28;20030;-32
2021/03/02 04:38:24;;;;;;;25.67;12.40;;;19.40;99.90;;;;;;4993934;28;20032;-32
2021/03/02 04:40:50;;;;;;;30.52;13.20;;;19.40;99.90;;;;;;5003519;28;20022;-32
2021/03/02 04:43:16;;;;;;;34.03;13.73;;;19.40;99.90;;;;;;5007600;28;20030;-32
2021/03/02 04:45:42;;;;;;;27.95;13.68;;;19.40;99.90;;;;;;4996305;28;20023;-32
2021/03/02 04:48:08;;;;;;;27.45;11.38;;;19.40;99.90;;;;;;4993769;28;20022;-32
2021/03/02 04:50:34;;;;;;;29.15;12.77;;;19.30;99.90;;;;;;4995953;28;20100;-32
2021/03/02 04:52:59;;;;;;;27.30;12.23;;;19.30;99.90;;;;;;5010010;28;20479;-32
2021/03/02 04:55:25;;;;;;;29.77;13.35;;;19.30;99.90;;;;;;5011557;28;20030;-33
2021/03/02 04:57:51;;;;;;;26.80;11.55;;;19.30;99.90;;;;;;5013559;28;20108;-32
2021/03/02 05:00:17;;;;;;;30.10;11.70;;;19.30;99.90;;;;;;5006932;28;20026;-32
2021/03/02 05:02:43;;;;;;;33.15;12.30;;;19.30;99.90;;;;;;5007171;28;20181;-33
2021/03/02 05:05:09;;;;;;;23.90;11.68;;;19.30;99.90;;;;;;5013333;28;20495;-33
2021/03/02 05:07:35;;;;;;;24.08;12.45;;;19.30;99.90;;;;;;5011412;28;20030;-33
2021/03/02 05:10:01;;;;;;;34.97;13.02;;;19.30;99.90;;;;;;4994435;28;20046;-33
2021/03/02 05:12:27;;;;;;;30.02;13.07;;;19.30;99.90;;;;;;4996626;28;20060;-33
2021/03/02 05:14:53;;;;;;;28.95;12.77;;;19.30;99.90;;;;;;5002193;28;20037;-32
2021/03/02 05:17:19;;;;;;;27.67;12.30;;;19.30;99.90;;;;;;5007382;28;20036;-33
2021/03/02 05:19:45;;;;;;;32.22;12.48;;;19.30;99.90;;;;;;5007127;28;20034;-32
2021/03/02 05:22:11;;;;;;;25.70;11.23;;;19.30;99.90;;;;;;4998394;28;20109;-33
2021/03/02 05:24:36;;;;;;;27.00;11.80;;;19.30;99.90;;;;;;5001352;28;20029;-33
2021/03/02 05:27:02;;;;;;;23.40;11.38;;;19.30;99.90;;;;;;5009481;28;20121;-33
2021/03/02 05:29:28;;;;;;;27.65;11.93;;;19.30;99.90;;;;;;5010713;28;20030;-33
2021/03/02 05:31:54;;;;;;;22.77;11.77;;;19.30;99.90;;;;;;5002728;28;20072;-33
2021/03/02 05:34:20;;;;;;;25.75;11.73;;;19.30;99.90;;;;;;5011843;28;20034;-33
2021/03/02 05:36:47;;;;;;;27.10;12.05;;;19.30;99.90;;;;;;5001853;28;20708;-33
2021/03/02 05:39:13;;;;;;;28.30;12.57;;;19.30;99.90;;;;;;5014359;28;20076;-33
2021/03/02 05:41:41;;;;;;;32.88;12.88;;;19.30;99.90;;;;;;5004748;28;20408;-34
2021/03/02 05:44:11;;;;;;;25.05;11.82;;;19.30;99.90;;;;;;5015709;28;20049;-33
2021/03/02 05:46:38;;;;;;;26.30;12.15;;;19.30;99.90;;;;;;5010127;28;20481;-34
2021/03/02 05:49:04;;;;;;;29.88;11.90;;;19.30;99.90;;;;;;5007713;28;20034;-33
2021/03/02 05:51:32;;;;;;;22.85;11.30;;;19.30;99.90;;;;;;5005763;28;20026;-33
2021/03/02 05:53:58;;;;;;;;;;;19.30;99.90;;;;;;4996870;28;20026;-33
2021/03/02 05:56:25;;;;;;;27.60;12.77;;;19.30;99.90;;;;;;5010262;28;19928;-33
2021/03/02 05:58:54;;;;;;;23.10;11.23;;;19.30;99.90;;;;;;5014834;28;20025;-33
2021/03/02 06:01:19;;;;;;;24.40;11.32;;;19.30;99.90;;;;;;5010860;28;20046;-33
2021/03/02 06:03:45;;;;;;;25.80;11.85;;;19.30;99.90;;;;;;4999330;28;20046;-33
2021/03/02 06:06:11;;;;;;;25.42;10.85;;;19.30;99.90;;;;;;4999917;28;20439;-33
2021/03/02 06:08:37;;;;;;;26.73;12.85;;;19.30;99.90;;;;;;5015878;28;20431;-33
2021/03/02 06:11:25;;;;;;;30.88;12.82;;;19.30;99.90;;;;;;5014045;28;20022;-33
2021/03/02 06:13:52;;;;;;;29.08;12.00;;;19.20;99.90;;;;;;5003508;28;20033;-33
2021/03/02 06:16:18;;;;;;;26.60;11.50;;;19.30;99.90;;;;;;5001566;28;20540;-33
2021/03/02 06:18:53;;;;;;;25.35;11.88;;;19.20;99.90;;;;;;5005357;28;20380;-33
2021/03/02 06:21:20;;;;;;;27.88;11.88;;;19.20;99.90;;;;;;5006305;28;20511;-33
2021/03/02 06:23:52;;;;;;;27.60;11.95;;;19.20;99.90;;;;;;5002936;28;20030;-33
2021/03/02 06:26:25;;;;;;;29.98;12.43;;;19.20;99.90;;;;;;5010202;28;20030;-33
2021/03/02 06:28:55;;;;;;;27.77;11.35;;;19.20;99.90;;;;;;5007074;28;20026;-33
2021/03/02 06:31:30;;;;;;;30.92;12.13;;;19.20;99.90;;;;;;5009155;28;20033;-33
2021/03/02 06:34:12;;;;;;;27.02;12.88;;;19.20;99.90;;;;;;5001567;28;20022;-33
2021/03/02 06:36:41;;;;;;;21.83;12.00;;;19.20;99.90;;;;;;4998482;28;20030;-33
2021/03/02 06:39:32;;;;;;;21.08;12.07;;;19.20;99.90;;;;;;5015464;28;20022;-33
2021/03/02 06:42:20;;;;;;;22.30;11.30;;;19.20;99.90;;;;;;5009406;28;20034;-33
2021/03/02 06:44:48;;;;;;;34.88;11.75;;;19.20;99.90;;;;;;5001586;28;20026;-33
2021/03/02 06:47:31;;;;;;;31.35;11.68;;;19.20;99.90;;;;;;5004584;28;20054;-33
2021/03/02 06:49:58;;;;;;;30.73;12.77;;;19.20;99.90;;;;;;5007016;28;20441;-33
2021/03/02 06:52:24;;;;;;;34.75;13.10;;;19.10;99.90;;;;;;5011793;28;20464;-33
2021/03/02 06:54:51;;;;;;;36.78;15.38;;;19.10;99.90;;;;;;5013415;28;20026;-33
2021/03/02 06:57:21;;;;;;;39.80;16.85;;;19.00;99.90;;;;;;5013574;28;20030;-33
2021/03/02 06:59:54;;;;;;;43.83;27.20;;;19.00;99.90;;;;;;5014941;28;20081;-33
2021/03/02 07:02:32;;;;;;;51.83;27.73;;;19.00;99.90;;;;;;5010946;28;20073;-34
2021/03/02 07:05:15;;;;;;;46.70;27.45;;;19.00;99.90;;;;;;5013055;28;20499;-34
2021/03/02 07:07:43;;;;;;;46.80;25.83;;;18.90;99.90;;;;;;5006703;28;20030;-34
2021/03/02 07:10:09;;;;;;;;;;;18.90;99.90;;;;;;5009994;28;20057;-34
2021/03/02 07:12:38;;;;;;;43.42;21.00;;;18.90;99.90;;;;;;5000372;28;20315;-34
2021/03/02 07:15:07;;;;;;;45.80;19.23;;;18.90;99.90;;;;;;5006946;28;20102;-33
2021/03/02 07:17:38;;;;;;;45.50;19.63;;;18.80;99.90;;;;;;4993916;28;20073;-34
2021/03/02 07:20:05;;;;;;;40.85;16.63;;;18.80;99.90;;;;;;4994875;28;20021;-33
2021/03/02 07:22:34;;;;;;;41.72;16.77;;;18.80;99.90;;;;;;4994718;28;20381;-33
2021/03/02 07:25:02;;;;;;;42.92;16.98;;;18.80;99.90;;;;;;4994811;28;20045;-33
2021/03/02 07:27:29;;;;;;;;;;;18.70;99.90;;;;;;4994875;28;20432;-32
2021/03/02 07:29:59;;;;;;;42.92;21.55;;;18.80;99.90;;;;;;4994649;28;19959;-32
2021/03/02 07:32:27;;;;;;;50.97;19.58;;;18.80;99.90;;;;;;4994675;28;20035;-33
2021/03/02 07:34:53;;;;;;;205.38;159.30;;;18.80;99.90;;;;;;4994479;28;20380;-32
2021/03/02 07:37:20;;;;;;;133.23;97.88;;;18.70;99.90;;;;;;4994543;28;20491;-33
2021/03/02 07:40:02;;;;;;;92.03;57.22;;;18.70;99.90;;;;;;4994693;28;20124;-34
2021/03/02 07:42:28;;;;;;;79.18;51.63;;;18.60;99.90;;;;;;4994342;28;20037;-34
2021/03/02 07:45:09;;;;;;;77.20;39.75;;;18.60;99.90;;;;;;4994605;28;20027;-34
2021/03/02 07:47:48;;;;;;;56.22;30.83;;;18.60;99.90;;;;;;4993244;28;20432;-34
2021/03/02 07:50:19;;;;;;;63.58;29.70;;;18.50;99.90;;;;;;4994117;28;20106;-34
2021/03/02 07:52:46;;;;;;;67.28;34.97;;;18.50;99.90;;;;;;4994151;28;20465;-33
2021/03/02 07:55:23;;;;;;;69.30;37.40;;;18.60;99.90;;;;;;4993689;28;20084;-34
2021/03/02 07:58:13;;;;;;;71.28;37.38;;;18.60;99.90;;;;;;4992752;28;20731;-34
2021/03/02 08:00:40;;;;;;;64.30;27.33;;;18.60;99.90;;;;;;4993757;28;20113;-34
2021/03/02 08:03:21;;;;;;;51.60;21.40;;;18.60;99.90;;;;;;4992776;28;20050;-34
2021/03/02 08:05:48;;;;;;;47.30;21.63;;;18.60;99.90;;;;;;4993091;28;20034;-34
2021/03/02 08:08:23;;;;;;;51.38;21.17;;;18.60;99.90;;;;;;4991954;28;20381;-34
2021/03/02 08:11:03;;;;;;;46.00;19.98;;;18.60;99.90;;;;;;4992989;28;20031;-33
2021/03/02 08:13:41;;;;;;;50.70;18.48;;;18.70;99.90;;;;;;4993338;28;20018;-35
2021/03/02 08:16:09;;;;;;;48.95;20.20;;;18.70;99.90;;;;;;4993756;28;20029;-34
2021/03/02 08:18:39;;;;;;;50.65;22.70;;;18.70;99.90;;;;;;4993873;28;20030;-34
2021/03/02 08:21:18;;;;;;;50.17;24.08;;;18.80;99.90;;;;;;5003581;28;20421;-34
2021/03/02 08:23:47;;;;;;;53.00;23.35;;;18.90;99.90;;;;;;5013471;28;20464;-34
2021/03/02 08:26:43;;;;;;;55.63;24.45;;;18.90;99.90;;;;;;5013416;28;20036;-34
2021/03/02 08:29:17;;;;;;;45.10;22.98;;;18.90;99.90;;;;;;5012299;28;20109;-34
2021/03/02 08:31:48;;;;;;;46.28;19.63;;;19.00;99.90;;;;;;5013434;28;20057;-34
2021/03/02 08:34:16;;;;;;;49.80;21.13;;;19.00;99.90;;;;;;5013482;28;20022;-34
2021/03/02 08:36:46;;;;;;;87.72;44.13;;;19.10;99.90;;;;;;5013336;28;20053;-34
2021/03/02 08:39:15;;;;;;;81.25;46.00;;;19.20;99.90;;;;;;5013322;28;20506;-34
2021/03/02 08:41:44;;;;;;;80.65;43.92;;;19.20;99.90;;;;;;5013554;28;20436;-32
2021/03/02 08:44:18;;;;;;;54.22;30.05;;;19.20;99.90;;;;;;5012003;28;20480;-33
2021/03/02 08:46:51;;;;;;;50.10;25.70;;;19.20;99.90;;;;;;5008592;28;20030;-33
2021/03/02 08:49:18;;;;;;;50.95;24.48;;;19.20;99.90;;;;;;5013252;28;20430;-33
2021/03/02 08:51:44;;;;;;;46.90;20.42;;;19.20;99.90;;;;;;5009671;28;20022;-32
2021/03/02 08:54:10;;;;;;;47.03;16.48;;;19.20;99.90;;;;;;5010797;28;20109;-33
2021/03/02 08:56:36;;;;;;;44.90;15.70;;;19.20;99.90;;;;;;5013379;28;20408;-32
2021/03/02 08:59:01;;;;;;;50.38;16.55;;;19.20;99.90;;;;;;5013238;28;20034;-32
2021/03/02 09:01:35;;;;;;;41.58;15.98;;;19.30;99.90;;;;;;5013144;28;20109;-33
2021/03/02 09:04:14;;;;;;;41.60;16.63;;;19.30;99.90;;;;;;5013150;28;20057;-33
2021/03/02 09:06:48;;;;;;;40.25;14.30;;;19.30;99.90;;;;;;5013266;28;20033;-33
2021/03/02 09:09:19;;;;;;;70.90;44.53;;;19.40;99.90;;;;;;5016918;28;20018;-33
2021/03/02 09:11:55;;;;;;;62.28;35.25;;;19.40;99.90;;;;;;5016770;28;20022;-32
2021/03/02 09:14:33;;;;;;;60.67;25.67;;;19.40;99.90;;;;;;5016893;28;20022;-32
2021/03/02 09:17:02;;;;;;;69.82;20.98;;;19.50;99.90;;;;;;5016703;28;20122;-33
2021/03/02 09:19:41;;;;;;;49.55;15.98;;;19.60;99.90;;;;;;5016729;28;20026;-32
2021/03/02 09:22:16;;;;;;;41.13;14.85;;;19.60;99.90;;;;;;5016926;28;20030;-32
2021/03/02 09:24:45;;;;;;;47.58;16.35;;;19.60;99.90;;;;;;5016761;28;20037;-32
2021/03/02 09:27:16;;;;;;;42.97;15.18;;;19.60;99.90;;;;;;5016397;28;20018;-33
2021/03/02 09:29:50;;;;;;;36.22;13.38;;;19.70;99.90;;;;;;5016604;28;20073;-32
2021/03/02 09:32:24;;;;;;;36.92;13.98;;;19.60;99.90;;;;;;5016123;28;20026;-33
2021/03/02 09:35:04;;;;;;;43.17;14.10;;;19.70;99.90;;;;;;4996925;28;20031;-32
2021/03/02 09:37:31;;;;;;;37.40;14.20;;;19.70;99.90;;;;;;5002233;28;20103;-33
2021/03/02 09:40:01;;;;;;;36.15;12.75;;;19.80;99.90;;;;;;5016321;28;20341;-32
2021/03/02 09:42:29;;;;;;;38.17;13.43;;;19.80;99.90;;;;;;5015497;28;20475;-32
2021/03/02 09:45:00;;;;;;;36.45;12.68;;;19.80;99.90;;;;;;5015408;28;20025;-32
2021/03/02 09:47:29;;;;;;;38.17;13.35;;;19.80;99.90;;;;;;5015978;28;20028;-32
2021/03/02 09:50:03;;;;;;;34.90;12.38;;;19.90;99.90;;;;;;5016362;28;20105;-32
2021/03/02 09:52:39;;;;;;;34.22;12.98;;;19.90;99.90;;;;;;5016046;28;20108;-32
2021/03/02 09:55:09;;;;;;;46.20;13.25;;;19.90;99.90;;;;;;5016259;28;20025;-32
2021/03/02 09:57:58;;;;;;;37.75;13.70;;;20.00;99.90;;;;;;5015881;28;20093;-32
2021/03/02 10:00:24;;;;;;;39.20;13.38;;;20.00;99.90;;;;;;5016372;28;20405;-32
2021/03/02 10:02:53;;;;;;;40.90;13.80;;;20.00;99.90;;;;;;5015650;28;20111;-32
2021/03/02 10:05:36;;;;;;;37.75;12.93;;;20.00;99.90;;;;;;5015776;28;20022;-32
2021/03/02 10:08:24;;;;;;;63.55;37.95;;;20.00;99.90;;;;;;5015833;28;20022;-32
2021/03/02 10:10:52;;;;;;;56.00;36.47;;;20.10;99.90;;;;;;5015512;28;20049;-32
2021/03/02 10:13:31;;;;;;;60.33;28.95;;;20.10;99.90;;;;;;5014806;28;20028;-32
2021/03/02 10:16:11;;;;;;;46.13;20.08;;;20.20;99.90;;;;;;5014964;28;20105;-33
2021/03/02 10:18:56;;;;;;;40.42;17.60;;;20.20;99.90;;;;;;5011326;28;20075;-33
2021/03/02 10:21:44;;;;;;;42.65;16.20;;;20.30;99.90;;;;;;5013415;28;20117;-33
2021/03/02 10:24:17;;;;;;;43.03;15.10;;;20.30;99.90;;;;;;5007664;28;20045;-33
2021/03/02 10:26:44;;;;;;;85.72;52.88;;;20.30;99.90;;;;;;5011156;28;20092;-33
2021/03/02 10:29:10;;;;;;;89.57;55.22;;;20.40;99.90;;;;;;5004608;28;20053;-33
2021/03/02 10:31:36;;;;;;;89.82;57.08;;;20.40;99.90;;;;;;5004536;28;20033;-33
2021/03/02 10:34:07;;;;;;;74.38;43.65;;;20.50;99.90;;;;;;5003946;28;20022;-33
2021/03/02 10:36:35;;;;;;;78.60;42.40;;;20.50;99.90;;;;;;5005603;28;20022;-32
2021/03/02 10:39:21;;;;;;;67.10;29.00;;;20.60;99.90;;;;;;5004018;28;20097;-33
2021/03/02 10:41:47;;;;;;;51.58;19.17;;;20.60;99.90;;;;;;4995616;28;20169;-33
2021/03/02 10:44:13;;;;;;;40.67;13.50;;;20.70;99.90;;;;;;4994100;28;20109;-33
2021/03/02 10:46:39;;;;;;;36.15;12.45;;;20.80;99.90;;;;;;4995472;28;20028;-33
2021/03/02 10:49:05;;;;;;;34.42;13.70;;;20.90;99.90;;;;;;4995328;28;20026;-33
2021/03/02 10:51:32;;;;;;;42.92;14.45;;;20.90;99.90;;;;;;4995193;28;20026;-33
2021/03/02 10:53:59;;;;;;;36.27;13.57;;;21.00;99.90;;;;;;4995370;28;20053;-33
2021/03/02 10:56:25;;;;;;;37.42;13.20;;;21.00;99.90;;;;;;4993953;28;20058;-33
2021/03/02 10:58:51;;;;;;;42.25;13.68;;;21.10;99.90;;;;;;4995026;28;20472;-33
2021/03/02 11:01:20;;;;;;;38.90;12.82;;;21.10;99.90;;;;;;4995249;28;20041;-33
2021/03/02 11:03:46;;;;;;;39.45;13.25;;;21.20;99.90;;;;;;4994854;28;20504;-33
2021/03/02 11:06:14;;;;;;;49.00;13.10;;;21.20;99.90;;;;;;4993570;28;20022;-33
2021/03/02 11:08:44;;;;;;;37.15;11.80;;;21.30;99.90;;;;;;4994505;28;20030;-33
2021/03/02 11:11:13;;;;;;;36.70;12.07;;;21.30;99.90;;;;;;4994108;28;20026;-33
2021/03/02 11:13:40;;;;;;;32.33;12.77;;;21.30;99.90;;;;;;4993994;28;20106;-33
2021/03/02 11:16:06;;;;;;;36.80;12.63;;;21.40;99.90;;;;;;4992828;28;20029;-32
2021/03/02 11:18:32;;;;;;;42.80;11.85;;;21.40;99.90;;;;;;4994779;28;20023;-33
2021/03/02 11:20:58;;;;;;;41.00;11.07;;;21.50;99.90;;;;;;4994626;28;20465;-33
2021/03/02 11:23:24;;;;;;;38.03;12.30;;;21.50;99.90;;;;;;4994812;28;20080;-33
2021/03/02 11:25:50;;;;;;;45.15;13.73;;;21.60;99.90;;;;;;4994757;28;20027;-33
2021/03/02 11:28:16;;;;;;;37.70;14.30;;;21.60;99.90;;;;;;4994612;28;20019;-33
2021/03/02 11:30:43;;;;;;;41.20;13.90;;;21.60;99.90;;;;;;4993758;28;20046;-33
2021/03/02 11:33:11;;;;;;;39.67;13.40;;;21.60;99.90;;;;;;4994506;28;20038;-33
2021/03/02 11:35:38;;;;;;;44.33;13.43;;;21.70;99.90;;;;;;4994516;28;20023;-33
2021/03/02 11:38:04;;;;;;;30.40;12.13;;;21.70;99.90;;;;;;4993734;28;20033;-32
2021/03/02 11:40:32;;;;;;;36.63;14.63;;;21.80;99.90;;;;;;4993932;28;20030;-33
2021/03/02 11:42:58;;;;;;;36.78;12.35;;;21.80;99.90;;;;;;4994124;28;20026;-33
2021/03/02 11:45:29;;;;;;;34.90;12.43;;;21.90;99.90;;;;;;4993951;28;20029;-32
2021/03/02 11:47:55;;;;;;;29.55;11.77;;;22.00;99.90;;;;;;4994404;28;20029;-33
2021/03/02 11:50:22;;;;;;;40.87;11.50;;;22.00;99.90;;;;;;4994230;28;20093;-33
2021/03/02 11:52:49;;;;;;;40.03;11.95;;;22.00;99.90;;;;;;5004666;28;20032;-33
2021/03/02 11:55:16;;;;;;;30.10;10.75;;;22.10;99.90;;;;;;5001769;28;20495;-33
2021/03/02 11:57:43;;;;;;;34.13;11.55;;;22.10;99.90;;;;;;5002311;28;20022;-33
2021/03/02 12:00:21;;;;;;;31.13;11.82;;;22.20;99.90;;;;;;4999408;28;20523;-34
2021/03/02 12:02:49;;;;;;;37.63;11.98;;;22.20;99.90;;;;;;4992557;28;20054;-33
2021/03/02 12:05:16;;;;;;;29.65;11.50;;;22.20;99.90;;;;;;4993727;28;20022;-33
2021/03/02 12:07:42;;;;;;;31.77;12.05;;;22.30;99.90;;;;;;4993931;28;20023;-33
2021/03/02 12:10:10;;;;;;;30.25;10.23;;;22.30;99.90;;;;;;4993886;28;20035;-36
2021/03/02 12:12:36;;;;;;;;;;;22.30;99.90;;;;;;4994358;28;20034;-32
2021/03/02 12:15:04;;;;;;;36.13;11.10;;;22.30;99.90;;;;;;4993766;28;19909;-33
2021/03/02 12:17:29;;;;;;;32.38;10.00;;;22.30;99.90;;;;;;4992401;28;20038;-32
2021/03/02 12:19:55;;;;;;;26.63;9.68;;;22.40;99.90;;;;;;4993869;28;20037;-33
2021/03/02 12:22:21;;;;;;;28.83;11.05;;;22.40;99.90;;;;;;4993849;28;20081;-33
2021/03/02 12:24:47;;;;;;;26.10;10.30;;;22.40;99.90;;;;;;4992567;28;20026;-33
2021/03/02 12:27:15;;;;;;;27.52;9.77;;;22.40;99.90;;;;;;4993974;28;20473;-33
2021/03/02 12:29:41;;;;;;;30.02;10.80;;;22.50;99.90;;;;;;4993658;28;20023;-33
2021/03/02 12:32:07;;;;;;;30.73;10.77;;;22.50;99.90;;;;;;4992829;28;20034;-33
2021/03/02 12:34:33;;;;;;;37.45;11.95;;;22.50;99.90;;;;;;4993600;28;20034;-33
2021/03/02 12:36:59;;;;;;;29.20;11.63;;;22.50;99.90;;;;;;4992468;28;20030;-33
2021/03/02 12:39:25;;;;;;;24.88;10.90;;;22.50;99.90;;;;;;4993613;28;20481;-33
2021/03/02 12:41:50;;;;;;;30.60;10.60;;;22.60;99.90;;;;;;4995685;28;20093;-33